createdAt,value
2023-09-23T00:00:18.008Z,94.23
2023-09-23T00:02:45.616Z,93.54
2023-09-23T00:05:12.837Z,93.76
2023-09-23T00:07:49.917Z,92.23
2023-09-23T00:10:17.105Z,92.61
2023-09-23T00:12:44.176Z,92.66
2023-09-23T00:15:11.328Z,92.90
2023-09-23T00:17:38.177Z,94.07
2023-09-23T00:20:08.000Z,94.48
2023-09-23T00:22:34.911Z,95.00
2023-09-23T00:25:01.870Z,95.34
2023-09-23T00:27:28.595Z,93.96
2023-09-23T00:29:55.554Z,92.11
2023-09-23T00:32:22.415Z,90.13
2023-09-23T00:34:49.710Z,88.99
2023-09-23T00:37:16.556Z,91.33
2023-09-23T00:39:43.460Z,93.24
2023-09-23T00:42:10.587Z,93.34
2023-09-23T00:44:38.445Z,92.71
2023-09-23T00:47:05.348Z,92.98
2023-09-23T00:49:32.665Z,92.08
2023-09-23T00:51:59.793Z,89.80
2023-09-23T00:54:27.376Z,90.87
2023-09-23T00:56:54.122Z,90.73
2023-09-23T00:59:20.928Z,91.17
2023-09-23T01:01:52.941Z,95.69
2023-09-23T01:04:20.201Z,94.06
2023-09-23T01:06:50.357Z,90.82
2023-09-23T01:09:17.730Z,88.84
2023-09-23T01:11:44.822Z,87.53
2023-09-23T01:14:11.698Z,90.30
2023-09-23T01:16:39.804Z,90.96
2023-09-23T01:19:09.614Z,92.95
2023-09-23T01:21:37.039Z,93.89
2023-09-23T01:24:05.045Z,91.35
2023-09-23T01:26:31.863Z,89.17
2023-09-23T01:28:59.171Z,87.00
2023-09-23T01:31:26.044Z,83.72
2023-09-23T01:33:52.949Z,85.83
2023-09-23T01:36:56.839Z,85.37
2023-09-23T01:39:23.749Z,82.96
2023-09-23T01:41:51.023Z,80.20
2023-09-23T01:44:18.291Z,79.69
2023-09-23T01:46:46.439Z,79.24
2023-09-23T01:49:13.899Z,81.02
2023-09-23T01:51:41.366Z,79.10
2023-09-23T01:54:08.609Z,79.68
2023-09-23T01:56:35.624Z,83.78
2023-09-23T01:59:04.022Z,85.23
2023-09-23T02:01:32.124Z,89.51
2023-09-23T02:03:59.450Z,90.88
2023-09-23T02:06:26.306Z,93.53
2023-09-23T02:08:54.370Z,94.49
2023-09-23T02:11:21.621Z,94.78
2023-09-23T02:13:48.802Z,93.47
2023-09-23T02:16:15.789Z,91.70
2023-09-23T02:18:42.539Z,89.05
2023-09-23T02:21:09.694Z,91.25
2023-09-23T02:23:36.517Z,96.37
2023-09-23T02:26:04.468Z,96.93
2023-09-23T02:28:31.590Z,96.05
2023-09-23T02:30:59.798Z,93.64
2023-09-23T02:33:27.098Z,89.22
2023-09-23T02:35:54.161Z,87.06
2023-09-23T02:38:21.825Z,87.36
2023-09-23T02:41:19.577Z,83.82
2023-09-23T02:43:46.508Z,83.17
2023-09-23T02:46:13.471Z,84.08
2023-09-23T02:48:40.420Z,85.85
2023-09-23T02:51:07.236Z,86.94
2023-09-23T02:53:34.465Z,83.82
2023-09-23T02:56:06.989Z,83.16
2023-09-23T02:58:33.921Z,83.06
2023-09-23T03:01:01.145Z,81.36
2023-09-23T03:03:28.444Z,80.66
2023-09-23T03:05:56.354Z,82.60
2023-09-23T03:08:24.191Z,81.64
2023-09-23T03:10:51.126Z,83.72
2023-09-23T03:13:18.291Z,85.25
2023-09-23T03:15:55.431Z,89.56
2023-09-23T03:18:22.298Z,88.56
2023-09-23T03:20:49.431Z,86.28
2023-09-23T03:23:16.423Z,84.52
2023-09-23T03:25:47.111Z,84.24
2023-09-23T03:28:31.357Z,86.26
2023-09-23T03:31:01.489Z,89.59
2023-09-23T03:33:28.636Z,90.77
2023-09-23T03:36:04.315Z,90.36
2023-09-23T03:38:31.358Z,87.92
2023-09-23T03:40:58.867Z,87.88
2023-09-23T03:43:26.952Z,86.92
2023-09-23T03:45:53.815Z,88.26
2023-09-23T03:48:20.758Z,89.67
2023-09-23T03:51:25.458Z,88.87
2023-09-23T03:53:52.391Z,90.91
2023-09-23T03:56:19.875Z,89.02
2023-09-23T03:58:47.721Z,85.37
2023-09-23T04:01:15.419Z,84.35
2023-09-23T04:03:42.684Z,83.90
2023-09-23T04:06:10.044Z,87.17
2023-09-23T04:08:57.103Z,91.92
2023-09-23T04:11:26.834Z,94.65
2023-09-23T04:14:14.090Z,95.97
2023-09-23T04:16:40.927Z,96.61
2023-09-23T04:19:07.833Z,94.83
2023-09-23T04:21:34.909Z,94.94
2023-09-23T04:24:02.035Z,96.67
2023-09-23T04:26:29.366Z,98.29
2023-09-23T04:28:56.409Z,98.92
2023-09-23T04:31:23.524Z,96.05
2023-09-23T04:33:50.345Z,92.73
2023-09-23T04:36:17.220Z,92.97
2023-09-23T04:38:44.142Z,92.06
2023-09-23T04:41:11.321Z,92.01
2023-09-23T04:43:38.620Z,91.06
2023-09-23T04:46:05.850Z,93.84
2023-09-23T04:48:35.788Z,94.75
2023-09-23T04:51:02.908Z,97.88
2023-09-23T04:53:32.720Z,98.71
2023-09-23T04:56:00.013Z,97.87
2023-09-23T04:58:27.292Z,97.78
2023-09-23T05:00:54.460Z,94.44
2023-09-23T05:03:21.539Z,95.75
2023-09-23T05:06:11.006Z,96.91
2023-09-23T05:08:38.101Z,95.92
2023-09-23T05:11:05.372Z,96.63
2023-09-23T05:13:32.588Z,93.75
2023-09-23T05:15:59.841Z,91.16
2023-09-23T05:18:26.977Z,90.54
2023-09-23T05:20:54.093Z,94.57
2023-09-23T05:23:21.413Z,95.97
2023-09-23T05:25:54.854Z,96.64
2023-09-23T05:28:22.044Z,97.88
2023-09-23T05:30:51.786Z,98.92
2023-09-23T05:33:20.088Z,97.35
2023-09-23T05:35:47.296Z,97.91
2023-09-23T05:38:14.129Z,98.81
2023-09-23T05:40:41.888Z,99.04
2023-09-23T05:43:09.527Z,100.00
2023-09-23T05:45:37.114Z,100.00
2023-09-23T05:48:07.297Z,100.00
2023-09-23T05:50:35.262Z,100.00
2023-09-23T05:53:02.331Z,100.00
2023-09-23T05:55:31.010Z,100.00
2023-09-23T05:57:58.100Z,100.00
2023-09-23T06:00:25.583Z,100.00
2023-09-23T06:02:55.222Z,100.00
2023-09-23T06:05:25.690Z,100.00
2023-09-23T06:07:55.992Z,100.00
2023-09-23T06:10:23.230Z,100.00
2023-09-23T06:12:51.236Z,100.00
2023-09-23T06:15:18.368Z,100.00
2023-09-23T06:17:45.867Z,100.00
2023-09-23T06:20:21.843Z,100.00
2023-09-23T06:22:52.023Z,100.00
2023-09-23T06:25:19.274Z,99.54
2023-09-23T06:27:47.118Z,98.84
2023-09-23T06:30:14.342Z,97.31
2023-09-23T06:32:41.609Z,97.01
2023-09-23T06:35:09.279Z,95.93
2023-09-23T06:37:36.666Z,93.78
2023-09-23T06:40:04.965Z,93.06
2023-09-23T06:42:33.286Z,93.39
2023-09-23T06:45:00.512Z,93.95
2023-09-23T06:47:27.674Z,91.02
2023-09-23T06:49:54.714Z,91.54
2023-09-23T06:52:22.852Z,90.17
2023-09-23T06:54:49.689Z,89.57
2023-09-23T06:57:17.868Z,88.29
2023-09-23T06:59:45.067Z,84.99
2023-09-23T07:02:12.048Z,84.53
2023-09-23T07:04:40.475Z,79.44
2023-09-23T07:07:07.584Z,74.37
2023-09-23T07:09:34.859Z,72.84
2023-09-23T07:15:55.429Z,74.69
2023-09-23T07:18:23.980Z,75.02
2023-09-23T07:20:57.004Z,71.04
2023-09-23T07:23:25.833Z,68.01
2023-09-23T07:25:55.576Z,67.75
2023-09-23T07:28:23.005Z,66.23
2023-09-23T07:30:50.927Z,69.07
2023-09-23T07:33:18.207Z,71.63
2023-09-23T07:35:45.350Z,71.92
2023-09-23T07:38:12.944Z,72.52
2023-09-23T07:40:40.303Z,75.44
2023-09-23T07:43:07.461Z,76.00
2023-09-23T07:45:35.281Z,74.63
2023-09-23T07:48:05.113Z,69.22
2023-09-23T07:50:32.303Z,64.79
2023-09-23T07:53:00.526Z,63.04
2023-09-23T07:55:28.124Z,61.65
2023-09-23T07:57:56.312Z,63.04
2023-09-23T08:00:23.575Z,67.75
2023-09-23T08:02:52.475Z,69.83
2023-09-23T08:16:35.945Z,68.90
2023-09-23T08:19:07.890Z,70.29
2023-09-23T08:29:13.143Z,62.64
2023-09-23T08:31:40.930Z,61.34
2023-09-23T08:43:31.689Z,63.13
2023-09-23T09:33:37.890Z,62.62
2023-09-23T09:36:06.840Z,60.11
2023-09-23T09:38:43.304Z,61.92
2023-09-23T09:41:40.041Z,66.45
2023-09-23T09:59:43.340Z,65.35
2023-09-23T10:37:44.898Z,62.60
2023-09-23T10:40:13.080Z,59.20
2023-09-23T10:42:42.224Z,58.31
2023-09-23T10:45:10.556Z,59.53
2023-09-23T10:47:38.929Z,59.59
2023-09-23T10:50:22.807Z,52.33
2023-09-23T10:52:50.694Z,56.10
2023-09-23T10:55:25.616Z,55.34
2023-09-23T10:57:56.311Z,60.53
2023-09-23T11:00:23.923Z,60.12
2023-09-23T11:02:52.859Z,60.75
2023-09-23T11:05:22.932Z,59.06
2023-09-23T11:07:50.429Z,60.04
2023-09-23T11:10:17.346Z,60.50
2023-09-23T11:12:44.753Z,58.47
2023-09-23T11:15:13.070Z,56.77
2023-09-23T11:17:41.465Z,56.37
2023-09-23T11:20:09.756Z,55.80
2023-09-23T11:22:37.146Z,58.40
2023-09-23T11:25:08.581Z,57.22
2023-09-23T11:27:35.507Z,52.22
2023-09-23T11:30:02.774Z,51.02
2023-09-23T11:32:29.912Z,54.10
2023-09-23T12:31:19.920Z,57.10
2023-09-23T12:33:47.052Z,57.95
2023-09-23T12:36:14.224Z,59.88
2023-09-23T12:38:41.211Z,61.52
2023-09-23T12:41:09.292Z,58.55
2023-09-23T12:43:39.014Z,56.90
2023-09-23T12:46:05.867Z,55.61
2023-09-23T12:48:32.655Z,57.14
2023-09-23T12:50:59.887Z,52.42
2023-09-23T12:53:27.061Z,55.26
2023-09-23T12:55:53.901Z,59.75
2023-09-23T12:58:20.696Z,60.64
2023-09-23T13:00:47.493Z,60.18
2023-09-23T13:03:15.246Z,60.92
2023-09-23T13:05:43.837Z,61.81
2023-09-23T13:08:10.664Z,59.28
2023-09-23T13:10:37.800Z,59.34
2023-09-23T13:13:04.731Z,61.12
2023-09-23T13:15:43.039Z,62.75
2023-09-23T13:18:10.855Z,63.98
2023-09-23T13:20:37.837Z,64.15
2023-09-23T13:23:05.580Z,62.62
2023-09-23T13:25:32.571Z,64.13
2023-09-23T13:28:00.402Z,62.77
2023-09-23T13:30:27.582Z,63.40
2023-09-23T13:32:55.597Z,58.98
2023-09-23T13:35:25.385Z,59.86
2023-09-23T13:37:55.307Z,59.91
2023-09-23T13:40:23.802Z,59.62
2023-09-23T13:42:50.997Z,62.28
2023-09-23T13:45:18.349Z,66.71
2023-09-23T13:47:46.598Z,64.44
2023-09-23T13:50:13.561Z,63.61
2023-09-23T13:52:41.634Z,63.13
2023-09-23T13:55:22.633Z,58.46
2023-09-23T13:57:49.841Z,54.96
2023-09-23T14:00:16.688Z,57.57
2023-09-23T14:02:44.900Z,62.06
2023-09-23T14:05:12.793Z,58.61
2023-09-23T14:07:39.769Z,59.66
2023-09-23T14:10:20.417Z,61.52
2023-09-23T14:12:50.088Z,61.53
2023-09-23T14:15:17.977Z,62.47
2023-09-23T14:17:45.342Z,62.59
2023-09-23T14:20:13.979Z,60.78
2023-09-23T14:22:41.771Z,57.57
2023-09-23T14:25:11.604Z,57.71
2023-09-23T14:27:41.370Z,58.26
2023-09-23T14:30:11.517Z,58.67
2023-09-23T14:32:38.384Z,57.69
2023-09-23T14:35:08.209Z,56.30
2023-09-23T14:37:35.483Z,57.58
2023-09-23T14:40:02.643Z,58.18
2023-09-23T14:42:29.534Z,56.45
2023-09-23T14:44:56.278Z,52.41
2023-09-23T14:47:25.994Z,53.68
2023-09-23T14:49:53.167Z,53.69
2023-09-23T14:52:20.270Z,53.09
2023-09-23T14:54:47.243Z,52.84
2023-09-23T14:57:14.951Z,54.15
2023-09-23T14:59:41.837Z,50.52
2023-09-23T15:02:09.111Z,55.51
2023-09-23T15:04:36.480Z,56.13
2023-09-23T15:07:03.778Z,55.35
2023-09-23T15:09:30.618Z,56.01
2023-09-23T15:11:57.353Z,54.15
2023-09-23T15:14:24.834Z,53.80
2023-09-23T15:16:54.793Z,51.23
2023-09-23T15:19:21.938Z,54.22
2023-09-23T15:21:48.773Z,51.48
2023-09-23T15:24:18.684Z,52.48
2023-09-23T15:26:45.572Z,55.43
2023-09-23T15:29:12.384Z,55.12
2023-09-23T15:31:40.413Z,52.59
2023-09-23T15:34:10.410Z,54.48
2023-09-23T15:36:37.307Z,52.93
2023-09-23T15:39:05.434Z,52.44
2023-09-23T15:41:32.263Z,54.30
2023-09-23T15:43:59.464Z,54.13
2023-09-23T15:46:26.242Z,51.41
2023-09-23T15:48:53.104Z,53.61
2023-09-23T15:51:21.367Z,54.91
2023-09-23T15:53:48.281Z,55.77
2023-09-23T15:56:16.964Z,54.92
2023-09-23T15:58:43.789Z,54.81
2023-09-23T16:01:10.681Z,55.88
2023-09-23T16:03:37.615Z,56.10
2023-09-23T16:06:07.675Z,55.71
2023-09-23T16:08:34.483Z,58.13
2023-09-23T16:11:04.636Z,58.92
2023-09-23T16:13:33.154Z,60.29
2023-09-23T16:16:00.044Z,59.31
2023-09-23T16:18:30.051Z,60.74
2023-09-23T16:20:57.322Z,59.46
2023-09-23T16:23:26.920Z,60.94
2023-09-23T16:25:54.148Z,60.79
2023-09-23T16:28:23.721Z,61.47
2023-09-23T16:30:50.708Z,63.10
2023-09-23T16:33:17.963Z,61.51
2023-09-23T16:35:44.946Z,64.65
2023-09-23T16:38:12.046Z,61.29
2023-09-23T16:40:40.445Z,62.89
2023-09-23T16:43:07.639Z,60.22
2023-09-23T16:45:36.979Z,61.89
2023-09-23T16:48:03.907Z,62.13
2023-09-23T16:50:33.519Z,63.77
2023-09-23T16:53:00.489Z,64.30
2023-09-23T16:55:30.302Z,65.46
2023-09-23T16:57:57.035Z,64.51
2023-09-23T17:00:24.858Z,66.12
2023-09-23T17:02:52.339Z,66.38
2023-09-23T17:05:19.137Z,65.61
2023-09-23T17:07:46.372Z,66.87
2023-09-23T17:10:13.221Z,67.92
2023-09-23T17:12:41.373Z,69.01
2023-09-23T17:15:09.081Z,68.75
2023-09-23T17:17:35.848Z,71.05
2023-09-23T17:20:05.011Z,70.45
2023-09-23T17:22:31.736Z,71.36
2023-09-23T17:24:58.523Z,71.34
2023-09-23T17:27:25.325Z,70.75
2023-09-23T17:29:52.433Z,71.49
2023-09-23T17:32:19.274Z,72.07
2023-09-23T17:34:46.104Z,72.51
2023-09-23T17:37:13.285Z,72.52
2023-09-23T17:39:40.591Z,71.34
2023-09-23T17:42:07.921Z,72.10
2023-09-23T17:44:38.056Z,72.00
2023-09-23T17:47:05.510Z,71.12
2023-09-23T17:49:35.025Z,72.39
2023-09-23T17:52:01.791Z,71.47
2023-09-23T17:54:28.608Z,71.58
2023-09-23T17:56:55.997Z,70.45
2023-09-23T17:59:23.839Z,71.31
2023-09-23T18:01:51.041Z,71.01
2023-09-23T18:04:17.859Z,71.00
2023-09-23T18:06:44.661Z,70.65
2023-09-23T18:09:11.491Z,72.83
2023-09-23T18:11:38.426Z,71.60
2023-09-23T18:14:05.826Z,71.83
2023-09-23T18:16:33.613Z,72.22
2023-09-23T18:19:00.372Z,73.07
2023-09-23T18:21:27.338Z,73.10
2023-09-23T18:23:54.276Z,73.17
2023-09-23T18:26:21.224Z,74.24
2023-09-23T18:28:50.984Z,73.47
2023-09-23T18:31:17.696Z,73.53
2023-09-23T18:33:45.113Z,74.39
2023-09-23T18:36:12.435Z,74.24
2023-09-23T18:38:39.467Z,75.14
2023-09-23T18:41:07.918Z,74.59
2023-09-23T18:43:35.088Z,74.92
2023-09-23T18:46:01.950Z,73.54
2023-09-23T18:48:31.762Z,74.35
2023-09-23T18:50:59.981Z,73.97
2023-09-23T18:53:28.438Z,73.46
2023-09-23T18:55:55.799Z,73.92
2023-09-23T18:58:42.628Z,75.02
2023-09-23T19:01:29.542Z,73.59
2023-09-23T19:04:16.805Z,74.08
2023-09-23T19:06:44.446Z,74.91
2023-09-23T19:09:12.703Z,75.97
2023-09-23T19:11:39.841Z,76.46
2023-09-23T19:14:06.682Z,75.49
2023-09-23T19:16:33.434Z,76.72
2023-09-23T19:19:00.181Z,77.16
2023-09-23T19:21:26.961Z,76.62
2023-09-23T19:23:53.817Z,76.84
2023-09-23T19:26:20.768Z,76.66
2023-09-23T19:28:47.578Z,75.89
2023-09-23T19:31:17.168Z,76.30
2023-09-23T19:33:45.838Z,76.16
2023-09-23T19:36:13.242Z,75.18
2023-09-23T19:38:40.438Z,74.92
2023-09-23T19:41:07.495Z,76.24
2023-09-23T19:43:34.417Z,76.99
2023-09-23T19:46:02.354Z,76.81
2023-09-23T19:48:29.131Z,77.94
2023-09-23T19:50:57.176Z,77.66
2023-09-23T19:53:24.333Z,76.34
2023-09-23T19:55:51.442Z,75.76
2023-09-23T19:58:18.643Z,76.14
2023-09-23T20:00:48.724Z,74.99
2023-09-23T20:03:15.553Z,73.67
2023-09-23T20:05:42.467Z,73.81
2023-09-23T20:08:09.253Z,73.08
2023-09-23T20:10:36.501Z,74.37
2023-09-23T20:13:04.224Z,73.47
2023-09-23T20:15:33.924Z,72.60
2023-09-23T20:18:01.052Z,72.01
2023-09-23T20:20:28.702Z,71.99
2023-09-23T20:22:55.492Z,72.24
2023-09-23T20:25:22.300Z,71.08
2023-09-23T20:27:49.204Z,71.48
2023-09-23T20:30:17.245Z,70.99
2023-09-23T20:32:44.108Z,69.72
2023-09-23T20:35:11.459Z,70.72
2023-09-23T20:37:38.823Z,70.85
2023-09-23T20:40:11.103Z,71.31
2023-09-23T20:42:37.942Z,71.08
2023-09-23T20:45:06.132Z,72.14
2023-09-23T20:47:34.325Z,72.78
2023-09-23T20:50:01.937Z,72.83
2023-09-23T20:52:29.137Z,72.83
2023-09-23T20:54:57.041Z,72.83
2023-09-23T20:57:23.888Z,73.19
2023-09-23T20:59:51.132Z,72.57
2023-09-23T21:02:18.012Z,72.78
2023-09-23T21:04:45.647Z,73.09
2023-09-23T21:07:12.685Z,73.15
2023-09-23T21:09:40.765Z,73.72
2023-09-23T21:12:07.771Z,73.53
2023-09-23T21:14:34.982Z,73.78
2023-09-23T21:17:01.885Z,74.04
2023-09-23T21:19:29.018Z,73.98
2023-09-23T21:21:55.760Z,74.29
2023-09-23T21:24:22.499Z,75.22
2023-09-23T21:26:49.285Z,75.10
2023-09-23T21:29:16.556Z,75.27
2023-09-23T21:31:43.686Z,75.65
2023-09-23T21:34:10.435Z,76.01
2023-09-23T21:36:37.164Z,75.33
2023-09-23T21:39:03.933Z,76.17
2023-09-23T21:41:31.058Z,76.66
2023-09-23T21:43:57.856Z,77.30
2023-09-23T21:46:24.987Z,77.34
2023-09-23T21:48:51.742Z,77.17
2023-09-23T21:51:18.804Z,76.72
2023-09-23T21:53:46.490Z,77.69
2023-09-23T21:56:13.408Z,77.32
2023-09-23T21:58:40.156Z,77.77
2023-09-23T22:01:08.501Z,77.87
2023-09-23T22:03:35.507Z,77.78
2023-09-23T22:06:02.614Z,78.30
2023-09-23T22:08:29.668Z,78.30
2023-09-23T22:10:56.505Z,78.70
2023-09-23T22:13:23.783Z,79.32
2023-09-23T22:15:50.590Z,78.86
2023-09-23T22:18:17.431Z,78.71
2023-09-23T22:20:44.508Z,78.92
2023-09-23T22:23:11.827Z,78.88
2023-09-23T22:25:38.769Z,78.67
2023-09-23T22:28:06.423Z,79.36
2023-09-23T22:30:33.234Z,79.32
2023-09-23T22:33:00.015Z,79.35
2023-09-23T22:35:28.181Z,79.24
2023-09-23T22:37:55.255Z,78.88
2023-09-23T22:40:23.208Z,79.29
2023-09-23T22:42:50.790Z,78.88
2023-09-23T22:45:32.130Z,78.73
2023-09-23T22:48:04.671Z,78.66
2023-09-23T22:50:32.462Z,79.02
2023-09-23T22:52:59.608Z,79.00
2023-09-23T22:55:26.688Z,79.28
2023-09-23T22:57:54.832Z,79.26
2023-09-23T23:00:22.915Z,79.36
2023-09-23T23:02:50.111Z,79.17
2023-09-23T23:05:17.465Z,79.40
2023-09-23T23:07:48.833Z,79.87
2023-09-23T23:10:18.789Z,79.70
2023-09-23T23:12:46.853Z,79.57
2023-09-23T23:15:17.579Z,78.78
2023-09-23T23:17:45.370Z,79.00
2023-09-23T23:20:14.576Z,79.08
2023-09-23T23:22:42.097Z,78.49
2023-09-23T23:25:10.562Z,78.39
2023-09-23T23:27:37.293Z,78.79
2023-09-23T23:30:04.616Z,78.92
2023-09-23T23:32:32.417Z,78.35
2023-09-23T23:34:59.540Z,78.15
2023-09-23T23:37:26.278Z,78.01
2023-09-23T23:39:53.122Z,77.89
2023-09-23T23:42:19.873Z,77.99
2023-09-23T23:44:50.192Z,78.51
2023-09-23T23:47:19.010Z,78.92
2023-09-23T23:49:48.477Z,78.97
2023-09-23T23:52:19.177Z,78.56
2023-09-23T23:54:46.394Z,78.73
2023-09-23T23:57:13.498Z,78.42
2023-09-23T23:59:40.383Z,78.79
